Time;durP1;ratioP1;P1;durP2;ratioP2;P2;SDS_P1;SDS_P2;PMS_P1;PMS_P2;Temp;Humidity;BMP_temperature;BMP_pressure;BME280_temperature;BME280_humidity;BME280_pressure;Samples;Min_cycle;Max_cycle;Signal;HPM_P1;HPM_P2
2022/08/27 00:01:08;;;;;;;5.30;0.68;;;16.20;99.90;;;;;;5109040;28;20494;-78
2022/08/27 00:03:34;;;;;;;2.65;0.77;;;16.20;99.90;;;;;;5103924;28;20027;-78
2022/08/27 00:06:00;;;;;;;5.43;0.73;;;16.10;99.90;;;;;;5094285;28;20029;-78
2022/08/27 00:08:25;;;;;;;6.82;0.95;;;16.10;99.90;;;;;;5096840;28;20484;-78
2022/08/27 00:10:51;;;;;;;4.68;0.77;;;16.10;99.90;;;;;;5099116;28;20443;-78
2022/08/27 00:13:17;;;;;;;4.32;0.82;;;16.00;99.90;;;;;;5096743;28;20020;-77
2022/08/27 00:15:42;;;;;;;5.35;1.58;;;16.00;99.90;;;;;;5097276;28;20126;-78
2022/08/27 00:18:08;;;;;;;5.78;1.20;;;16.00;99.90;;;;;;5095102;28;20400;-78
2022/08/27 00:20:33;;;;;;;5.72;0.82;;;16.00;99.90;;;;;;5099815;28;20106;-78
2022/08/27 00:22:59;;;;;;;4.90;0.70;;;15.90;99.90;;;;;;5097764;28;20077;-78
2022/08/27 00:25:25;;;;;;;3.85;0.73;;;15.90;99.90;;;;;;5098389;28;20027;-78
2022/08/27 00:27:51;;;;;;;5.38;0.85;;;15.80;99.90;;;;;;5093348;28;20028;-78
2022/08/27 00:30:19;;;;;;;6.07;0.80;;;15.80;99.90;;;;;;5099958;28;20094;-78
2022/08/27 00:32:45;;;;;;;5.85;0.90;;;15.80;99.90;;;;;;5097842;28;20036;-78
2022/08/27 00:35:12;;;;;;;6.35;1.00;;;15.70;99.90;;;;;;5102363;28;20024;-78
2022/08/27 00:37:38;;;;;;;4.63;0.98;;;15.70;99.90;;;;;;5092847;28;20157;-78
2022/08/27 00:40:06;;;;;;;3.78;0.88;;;15.60;99.90;;;;;;5078352;28;20482;-78
2022/08/27 00:42:32;;;;;;;3.63;0.88;;;15.60;99.90;;;;;;5091539;28;20032;-79
2022/08/27 00:44:58;;;;;;;4.00;0.88;;;15.60;99.90;;;;;;5092554;28;20043;-78
2022/08/27 00:47:27;;;;;;;5.00;0.90;;;15.50;99.90;;;;;;5090736;28;20047;-77
2022/08/27 00:50:00;;;;;;;7.07;0.90;;;15.50;99.90;;;;;;5103845;28;20037;-77
2022/08/27 00:52:32;;;;;;;8.10;1.13;;;15.50;99.90;;;;;;5094394;28;20430;-78
2022/08/27 00:55:10;;;;;;;4.05;0.80;;;15.40;99.90;;;;;;5106313;28;20383;-78
2022/08/27 00:57:39;;;;;;;12.90;1.30;;;15.30;99.90;;;;;;5093390;28;20039;-78
2022/08/27 01:00:11;;;;;;;3.25;1.00;;;15.20;99.90;;;;;;5107866;28;20034;-78
2022/08/27 01:02:36;;;;;;;6.72;2.10;;;15.20;99.90;;;;;;5096849;28;20455;-78
2022/08/27 01:05:06;;;;;;;6.30;1.10;;;15.00;99.90;;;;;;5091657;28;20059;-78
2022/08/27 01:07:36;;;;;;;7.55;2.00;;;15.00;99.90;;;;;;5092567;28;20040;-77
2022/08/27 01:10:06;;;;;;;4.13;0.95;;;15.00;99.90;;;;;;5094464;28;20028;-78
2022/08/27 01:12:32;;;;;;;2.95;1.00;;;14.90;99.90;;;;;;5087626;28;20028;-78
2022/08/27 01:15:00;;;;;;;3.85;1.08;;;14.80;99.90;;;;;;5098792;28;20070;-78
2022/08/27 01:17:26;;;;;;;4.78;1.20;;;14.80;99.90;;;;;;5091565;28;20016;-78
2022/08/27 01:19:55;;;;;;;3.13;0.80;;;14.70;99.90;;;;;;5100697;28;20526;-78
2022/08/27 01:22:43;;;;;;;3.95;1.52;;;14.70;99.90;;;;;;5094885;28;20028;-78
2022/08/27 01:25:12;;;;;;;6.25;1.75;;;14.60;99.90;;;;;;5086990;28;20080;-78
2022/08/27 01:27:39;;;;;;;7.28;1.30;;;14.50;99.90;;;;;;5095938;28;20046;-78
2022/08/27 01:30:09;;;;;;;7.18;1.35;;;14.50;99.90;;;;;;5095090;28;20028;-78
2022/08/27 01:32:35;;;;;;;4.45;1.20;;;14.40;99.90;;;;;;5090119;28;20028;-78
2022/08/27 01:35:04;;;;;;;5.00;1.30;;;14.40;99.90;;;;;;5098087;28;20077;-78
2022/08/27 01:37:30;;;;;;;4.50;1.27;;;14.40;99.90;;;;;;5087863;28;20047;-76
2022/08/27 01:40:00;;;;;;;3.63;1.00;;;14.30;99.90;;;;;;5093682;28;20032;-78
2022/08/27 01:42:38;;;;;;;13.45;1.63;;;14.30;99.90;;;;;;5087961;28;20028;-77
2022/08/27 01:45:15;;;;;;;5.60;1.23;;;14.30;99.90;;;;;;5084580;28;20074;-78
2022/08/27 01:47:41;;;;;;;10.20;1.30;;;14.30;99.90;;;;;;5088633;28;20036;-78
2022/08/27 01:50:15;;;;;;;3.45;1.00;;;14.20;99.90;;;;;;5092633;28;20028;-78
2022/08/27 01:52:40;;;;;;;4.00;1.20;;;14.10;99.90;;;;;;5088808;28;20027;-78
2022/08/27 01:55:08;;;;;;;5.63;1.20;;;14.10;99.90;;;;;;5091148;28;20033;-78
2022/08/27 01:57:34;;;;;;;3.50;0.95;;;14.10;99.90;;;;;;5089497;28;20032;-78
2022/08/27 02:00:02;;;;;;;5.57;1.50;;;14.10;99.90;;;;;;5090609;28;20074;-77
2022/08/27 02:02:27;;;;;;;7.68;1.42;;;14.10;99.90;;;;;;5096062;28;20035;-78
2022/08/27 02:04:53;;;;;;;5.75;1.45;;;14.10;99.90;;;;;;5087989;28;20032;-78
2022/08/27 02:07:19;;;;;;;5.68;1.27;;;14.10;99.90;;;;;;5091128;28;20040;-78
2022/08/27 02:09:44;;;;;;;3.58;1.10;;;14.10;99.90;;;;;;5092909;28;20060;-78
2022/08/27 02:12:10;;;;;;;5.22;1.25;;;14.10;99.90;;;;;;5092988;28;20028;-78
2022/08/27 02:14:35;;;;;;;6.72;1.70;;;14.10;99.90;;;;;;5092955;28;20514;-78
2022/08/27 02:17:01;;;;;;;4.13;1.42;;;14.00;99.90;;;;;;5090582;28;20487;-78
2022/08/27 02:19:27;;;;;;;5.18;1.50;;;14.10;99.90;;;;;;5095402;28;20026;-78
2022/08/27 02:21:52;;;;;;;5.25;1.98;;;14.00;99.90;;;;;;5100890;28;20031;-78
2022/08/27 02:24:18;;;;;;;3.42;1.67;;;14.00;99.90;;;;;;5089803;28;20032;-78
2022/08/27 02:26:43;;;;;;;3.30;1.70;;;14.00;99.90;;;;;;5090578;28;20020;-77
2022/08/27 02:29:09;;;;;;;8.52;2.00;;;14.00;99.90;;;;;;5090920;28;20028;-78
2022/08/27 02:31:35;;;;;;;5.70;1.55;;;14.00;99.90;;;;;;5089318;28;20123;-78
2022/08/27 02:34:02;;;;;;;6.28;2.13;;;14.00;99.90;;;;;;5090915;28;20540;-78
2022/08/27 02:36:28;;;;;;;5.00;1.63;;;13.90;99.90;;;;;;5108162;28;20036;-78
2022/08/27 02:38:55;;;;;;;6.47;1.35;;;13.90;99.90;;;;;;5097249;28;20031;-78
2022/08/27 02:41:20;;;;;;;4.22;1.30;;;13.80;99.90;;;;;;5092098;28;20028;-78
2022/08/27 02:43:46;;;;;;;4.45;1.58;;;13.80;99.90;;;;;;5088902;28;20502;-78
2022/08/27 02:46:12;;;;;;;9.80;2.13;;;13.80;99.90;;;;;;5091003;28;20421;-78
2022/08/27 02:48:39;;;;;;;8.57;1.92;;;13.70;99.90;;;;;;5087222;28;20054;-78
2022/08/27 02:51:05;;;;;;;7.07;2.15;;;13.70;99.90;;;;;;5108952;28;20027;-78
2022/08/27 02:53:33;;;;;;;6.32;2.03;;;13.70;99.90;;;;;;5090029;28;20462;-78
2022/08/27 02:55:58;;;;;;;5.10;1.63;;;13.70;99.90;;;;;;5098097;28;20048;-78
2022/08/27 02:58:24;;;;;;;6.38;2.10;;;13.80;99.90;;;;;;5090158;28;20063;-78
2022/08/27 03:00:50;;;;;;;5.80;1.98;;;13.80;99.90;;;;;;5098968;28;20114;-78
2022/08/27 03:03:16;;;;;;;6.28;2.15;;;13.90;99.90;;;;;;5091110;28;20448;-78
2022/08/27 03:05:42;;;;;;;6.28;2.50;;;14.00;99.90;;;;;;5098191;28;20392;-77
2022/08/27 03:08:07;;;;;;;8.52;2.33;;;14.00;99.90;;;;;;5089621;28;20056;-78
2022/08/27 03:10:33;;;;;;;7.38;2.65;;;14.10;99.90;;;;;;5097874;28;20467;-78
2022/08/27 03:12:59;;;;;;;6.30;2.08;;;14.30;99.90;;;;;;5092204;28;20032;-78
2022/08/27 03:15:25;;;;;;;6.78;2.60;;;14.40;99.90;;;;;;5088603;28;20028;-78
2022/08/27 03:20:40;;;;;;;7.28;2.85;;;14.50;99.90;;;;;;5100261;28;20027;-78
2022/08/27 03:23:07;;;;;;;8.07;2.65;;;14.60;99.90;;;;;;5080112;28;20035;-78
2022/08/27 03:25:32;;;;;;;7.50;2.78;;;14.70;99.90;;;;;;5082662;28;20071;-78
2022/08/27 03:27:58;;;;;;;6.72;2.47;;;14.80;99.90;;;;;;5090033;28;20071;-78
2022/08/27 03:30:24;;;;;;;4.85;2.33;;;14.80;99.90;;;;;;5107393;28;20106;-77
2022/08/27 03:32:50;;;;;;;7.18;2.45;;;14.90;99.90;;;;;;5102552;28;20046;-78
2022/08/27 03:35:18;;;;;;;9.05;2.75;;;14.90;99.90;;;;;;5098754;28;20024;-78
2022/08/27 03:37:43;;;;;;;8.18;3.05;;;15.00;99.90;;;;;;5096407;28;20084;-78
2022/08/27 03:40:10;;;;;;;6.88;2.90;;;15.10;99.90;;;;;;5089536;28;20103;-78
2022/08/27 03:42:37;;;;;;;6.70;2.22;;;15.10;99.90;;;;;;5086658;28;20024;-77
2022/08/27 03:45:03;;;;;;;4.75;2.58;;;15.20;99.90;;;;;;5093323;28;20017;-77
2022/08/27 03:47:29;;;;;;;6.57;2.22;;;15.30;99.90;;;;;;5096083;28;20032;-78
2022/08/27 03:49:55;;;;;;;10.15;2.50;;;15.30;99.90;;;;;;5106739;28;20028;-78
2022/08/27 03:52:21;;;;;;;4.25;2.05;;;15.30;99.90;;;;;;5094076;28;20063;-78
2022/08/27 03:54:46;;;;;;;4.63;1.80;;;15.40;99.90;;;;;;5096316;27;20107;-78
2022/08/27 03:57:12;;;;;;;5.57;1.95;;;15.40;99.90;;;;;;5095953;28;20103;-78
2022/08/27 03:59:37;;;;;;;5.72;2.30;;;15.40;99.90;;;;;;5092788;28;20506;-77
2022/08/27 04:02:04;;;;;;;4.55;1.85;;;15.40;99.90;;;;;;5096400;28;20491;-78
2022/08/27 04:04:30;;;;;;;6.55;2.50;;;15.50;99.90;;;;;;5093962;28;20375;-78
2022/08/27 04:06:56;;;;;;;5.88;2.13;;;15.50;99.90;;;;;;5098416;28;20051;-78
2022/08/27 04:09:22;;;;;;;4.40;2.47;;;15.50;99.90;;;;;;5093881;28;20024;-78
2022/08/27 04:11:48;;;;;;;9.32;2.38;;;15.50;99.90;;;;;;5100457;28;20210;-78
2022/08/27 04:14:13;;;;;;;4.50;2.28;;;15.60;99.90;;;;;;5097421;27;20032;-78
2022/08/27 04:16:39;;;;;;;8.00;2.35;;;15.60;99.90;;;;;;5105867;28;20519;-78
2022/08/27 04:19:05;;;;;;;7.15;2.25;;;15.60;99.90;;;;;;5084784;28;20020;-78
2022/08/27 04:21:32;;;;;;;5.63;2.25;;;15.60;99.90;;;;;;5092152;28;20024;-78
2022/08/27 04:23:59;;;;;;;5.35;2.10;;;15.60;99.90;;;;;;5093446;28;20093;-79
2022/08/27 04:26:25;;;;;;;5.45;2.13;;;15.60;99.90;;;;;;5110708;28;20031;-78
2022/08/27 04:28:50;;;;;;;4.75;2.65;;;15.60;99.90;;;;;;5095272;28;20085;-78
2022/08/27 04:31:16;;;;;;;6.00;2.22;;;15.70;99.90;;;;;;5094470;28;20020;-79
2022/08/27 04:33:43;;;;;;;7.90;2.10;;;15.70;99.90;;;;;;5084884;28;20111;-78
2022/08/27 04:36:10;;;;;;;5.63;2.25;;;15.70;99.90;;;;;;5093251;28;20020;-79
2022/08/27 04:38:37;;;;;;;4.97;2.30;;;15.70;99.90;;;;;;5097109;28;20024;-75
2022/08/27 04:41:25;;;;;;;7.32;2.17;;;15.70;99.90;;;;;;5094094;28;20173;-75
2022/08/27 04:44:01;;;;;;;8.38;2.85;;;15.70;99.90;;;;;;5095876;28;20131;-75
2022/08/27 04:46:28;;;;;;;5.90;1.83;;;15.70;99.90;;;;;;5094314;28;20476;-75
2022/08/27 04:48:56;;;;;;;6.18;2.00;;;15.70;99.90;;;;;;5093724;28;20201;-75
2022/08/27 04:51:22;;;;;;;6.47;2.65;;;15.70;99.90;;;;;;5091406;28;20024;-76
2022/08/27 04:53:48;;;;;;;5.50;1.95;;;15.70;99.90;;;;;;5086711;28;20043;-75
2022/08/27 04:56:16;;;;;;;4.47;1.80;;;15.70;99.90;;;;;;5087868;28;20058;-75
2022/08/27 04:58:43;;;;;;;5.90;2.28;;;15.70;99.90;;;;;;5095327;28;20032;-75
2022/08/27 05:01:13;;;;;;;3.85;2.30;;;15.70;99.90;;;;;;5092809;28;20123;-75
2022/08/27 05:03:39;;;;;;;7.78;2.33;;;15.70;99.90;;;;;;5085863;28;20032;-74
2022/08/27 05:06:05;;;;;;;7.38;2.47;;;15.70;99.90;;;;;;5088889;28;20020;-74
2022/08/27 05:08:33;;;;;;;5.97;1.95;;;15.70;99.90;;;;;;5084423;28;20048;-74
2022/08/27 05:10:59;;;;;;;9.90;2.03;;;15.80;99.90;;;;;;5087601;28;20032;-75
2022/08/27 05:13:25;;;;;;;9.43;2.70;;;15.80;99.90;;;;;;5093506;28;20061;-74
2022/08/27 05:15:58;;;;;;;6.90;1.88;;;15.80;99.90;;;;;;5093241;28;20024;-74
2022/08/27 05:18:24;;;;;;;5.40;2.03;;;15.90;99.90;;;;;;5093966;28;20101;-74
2022/08/27 05:20:50;;;;;;;7.43;2.28;;;15.90;99.90;;;;;;5092134;28;20476;-74
2022/08/27 05:23:18;;;;;;;9.68;2.03;;;16.00;99.90;;;;;;5086999;28;20160;-74
2022/08/27 05:25:45;;;;;;;8.50;2.35;;;16.00;99.90;;;;;;5073965;28;20027;-74
2022/08/27 05:28:13;;;;;;;8.48;2.30;;;16.00;99.90;;;;;;5074065;28;20039;-74
2022/08/27 05:30:43;;;;;;;8.05;2.25;;;16.10;99.90;;;;;;5088424;28;20360;-74
2022/08/27 05:33:09;;;;;;;7.43;2.28;;;16.10;99.90;;;;;;5092801;28;20047;-74
2022/08/27 05:35:46;;;;;;;6.55;2.63;;;16.10;99.90;;;;;;5092832;28;20023;-74
2022/08/27 05:38:12;;;;;;;9.82;2.58;;;16.20;99.90;;;;;;5094479;28;20387;-75
2022/08/27 05:40:39;;;;;;;7.18;1.88;;;16.20;99.90;;;;;;5092365;28;20031;-75
2022/08/27 05:43:05;;;;;;;7.55;2.25;;;16.30;99.90;;;;;;5089439;28;20032;-75
2022/08/27 05:45:31;;;;;;;7.43;2.20;;;16.40;99.90;;;;;;5093040;28;20016;-75
2022/08/27 05:47:57;;;;;;;7.55;2.38;;;16.50;99.90;;;;;;5093122;28;20506;-76
2022/08/27 05:50:25;;;;;;;6.55;2.22;;;16.60;99.90;;;;;;5091595;28;20051;-75
2022/08/27 05:52:51;;;;;;;5.60;2.50;;;16.60;99.90;;;;;;5090206;28;20539;-74
2022/08/27 05:55:18;;;;;;;5.80;2.38;;;16.70;99.90;;;;;;5091486;28;20027;-74
2022/08/27 05:57:43;;;;;;;6.57;2.40;;;16.80;99.90;;;;;;5092521;28;20484;-75
2022/08/27 06:02:53;;;;;;;5.95;2.33;;;16.80;99.90;;;;;;5090467;28;20038;-75
2022/08/27 06:05:19;;;;;;;8.23;1.77;;;16.90;99.90;;;;;;5091599;28;20027;-75
2022/08/27 06:07:45;;;;;;;3.88;1.90;;;16.90;99.90;;;;;;5090517;28;20048;-75
2022/08/27 06:10:11;;;;;;;7.03;2.10;;;16.80;99.90;;;;;;5091619;28;20491;-75
2022/08/27 06:12:37;;;;;;;5.93;1.70;;;16.90;99.90;;;;;;5090694;28;20123;-75
2022/08/27 06:15:03;;;;;;;6.82;2.05;;;16.90;99.90;;;;;;5093303;28;20055;-75
2022/08/27 06:17:29;;;;;;;5.75;1.98;;;17.00;99.90;;;;;;5092462;28;20416;-75
2022/08/27 06:19:55;;;;;;;7.82;2.13;;;17.00;99.90;;;;;;5087558;28;20063;-75
2022/08/27 06:22:20;;;;;;;8.70;2.10;;;17.10;99.90;;;;;;5081544;28;20060;-75
2022/08/27 06:24:46;;;;;;;7.38;2.30;;;17.10;99.90;;;;;;5079039;28;20032;-75
2022/08/27 06:27:15;;;;;;;4.45;1.60;;;17.10;99.90;;;;;;5085157;28;20032;-75
2022/08/27 06:29:42;;;;;;;7.07;1.80;;;17.20;99.90;;;;;;5091506;28;20024;-75
2022/08/27 06:32:08;;;;;;;7.20;1.95;;;17.20;99.90;;;;;;5090087;28;20065;-75
2022/08/27 06:34:35;;;;;;;4.70;1.48;;;17.30;99.90;;;;;;5089181;28;20028;-75
2022/08/27 06:37:00;;;;;;;5.55;1.42;;;17.30;99.90;;;;;;5090795;28;20028;-76
2022/08/27 06:39:26;;;;;;;5.38;1.77;;;17.40;99.90;;;;;;5091416;28;20047;-75
2022/08/27 06:41:52;;;;;;;5.95;1.60;;;17.40;99.90;;;;;;5090882;28;20028;-75
2022/08/27 06:44:18;;;;;;;5.32;1.70;;;17.50;99.90;;;;;;5083161;28;20040;-75
2022/08/27 06:46:43;;;;;;;6.70;1.88;;;17.60;99.90;;;;;;5080718;28;20480;-76
2022/08/27 06:49:10;;;;;;;4.85;1.58;;;17.60;99.90;;;;;;5083698;28;20388;-75
2022/08/27 06:51:38;;;;;;;3.03;1.15;;;17.70;99.90;;;;;;5091544;28;20515;-76
2022/08/27 06:54:10;;;;;;;5.78;1.65;;;17.70;99.90;;;;;;5090622;28;20039;-75
2022/08/27 06:56:36;;;;;;;6.28;1.40;;;17.80;99.90;;;;;;5089651;28;20441;-75
2022/08/27 06:59:07;;;;;;;4.45;1.08;;;17.90;99.90;;;;;;5092888;28;20031;-75
2022/08/27 07:01:36;;;;;;;11.95;1.83;;;18.00;99.90;;;;;;5087922;28;20032;-75
2022/08/27 07:04:05;;;;;;;5.70;1.17;;;18.10;99.90;;;;;;5090646;28;20050;-75
2022/08/27 07:06:32;;;;;;;6.53;1.00;;;18.10;99.90;;;;;;5089123;28;20032;-76
2022/08/27 07:08:58;;;;;;;6.88;1.75;;;18.20;99.90;;;;;;5090151;28;20103;-75
2022/08/27 07:11:25;;;;;;;7.38;1.27;;;18.30;99.90;;;;;;5089127;28;20024;-75
2022/08/27 07:13:51;;;;;;;5.75;1.13;;;18.30;99.90;;;;;;5091634;28;20039;-75
2022/08/27 07:16:21;;;;;;;4.95;1.40;;;18.40;99.90;;;;;;5076716;28;20024;-75
2022/08/27 07:18:49;;;;;;;4.15;1.27;;;18.50;99.90;;;;;;5092389;28;20027;-75
2022/08/27 07:21:15;;;;;;;2.35;0.80;;;18.60;99.90;;;;;;5091376;28;20032;-75
2022/08/27 07:23:41;;;;;;;4.43;0.85;;;18.70;99.90;;;;;;5088576;28;20024;-75
2022/08/27 07:26:11;;;;;;;3.53;0.77;;;18.80;99.90;;;;;;5091632;28;20040;-75
2022/08/27 07:28:39;;;;;;;4.45;0.70;;;18.80;99.90;;;;;;5083764;28;20059;-74
2022/08/27 07:31:07;;;;;;;3.72;0.60;;;18.90;99.90;;;;;;5093120;28;20024;-76
2022/08/27 07:33:34;;;;;;;3.42;0.85;;;18.90;99.90;;;;;;5090941;28;20024;-76
2022/08/27 07:36:00;;;;;;;4.43;0.60;;;19.00;99.90;;;;;;5089160;28;20028;-76
2022/08/27 07:38:26;;;;;;;3.10;0.50;;;19.10;99.90;;;;;;5087943;28;20036;-75
2022/08/27 07:40:51;;;;;;;5.13;0.60;;;19.10;99.90;;;;;;5090436;28;20020;-76
2022/08/27 07:46:02;;;;;;;1.85;0.40;;;19.30;99.70;;;;;;5088743;28;20051;-74
2022/08/27 07:48:28;;;;;;;4.38;0.40;;;19.40;99.40;;;;;;5087218;28;20037;-75
2022/08/27 07:50:54;;;;;;;4.85;0.50;;;19.40;99.30;;;;;;5073942;28;20036;-75
2022/08/27 07:53:20;;;;;;;2.65;0.82;;;19.40;99.10;;;;;;5086773;28;20035;-75
2022/08/27 07:55:46;;;;;;;2.85;0.55;;;19.60;98.90;;;;;;5074037;28;20032;-75
2022/08/27 07:58:12;;;;;;;1.25;0.40;;;19.60;98.70;;;;;;5089496;28;20368;-75
2022/08/27 08:00:43;;;;;;;4.22;0.50;;;19.70;98.60;;;;;;5074015;28;20713;-76
2022/08/27 08:03:10;;;;;;;3.53;0.40;;;19.90;98.20;;;;;;5081273;28;20046;-75
2022/08/27 08:05:39;;;;;;;2.95;0.50;;;20.00;97.80;;;;;;5090465;28;20059;-75
2022/08/27 08:08:07;;;;;;;3.35;0.55;;;20.10;97.40;;;;;;5096921;28;20523;-75
2022/08/27 08:10:35;;;;;;;4.38;0.60;;;20.20;97.30;;;;;;5097255;28;20035;-75
2022/08/27 08:13:01;;;;;;;3.78;0.73;;;20.40;96.80;;;;;;5092103;28;20024;-74
2022/08/27 08:15:26;;;;;;;3.00;0.68;;;20.40;96.50;;;;;;5090932;28;20430;-74
2022/08/27 08:17:52;;;;;;;4.60;0.40;;;20.50;96.00;;;;;;5098084;28;20040;-74
2022/08/27 08:20:18;;;;;;;3.35;0.50;;;20.50;95.80;;;;;;5096772;28;20413;-74
2022/08/27 08:22:44;;;;;;;3.40;0.40;;;20.50;95.50;;;;;;5096654;28;20066;-74
2022/08/27 08:25:10;;;;;;;4.13;0.50;;;20.60;95.20;;;;;;5086868;28;20036;-74
2022/08/27 08:27:35;;;;;;;2.22;0.43;;;20.70;94.90;;;;;;5092677;28;20036;-74
2022/08/27 08:30:01;;;;;;;2.88;0.40;;;20.70;94.70;;;;;;5083151;28;20039;-74
2022/08/27 08:32:35;;;;;;;3.22;0.93;;;20.80;94.50;;;;;;5091763;28;20024;-74
2022/08/27 08:35:01;;;;;;;1.70;0.40;;;20.90;94.30;;;;;;5084205;28;20039;-74
2022/08/27 08:37:26;;;;;;;1.98;0.40;;;20.90;93.90;;;;;;5094569;28;20028;-74
2022/08/27 08:39:53;;;;;;;3.78;0.60;;;20.90;93.70;;;;;;5096912;28;20049;-75
2022/08/27 08:42:29;;;;;;;3.15;0.30;;;21.00;93.50;;;;;;5094804;28;20028;-73
2022/08/27 08:44:58;;;;;;;4.68;0.45;;;20.90;93.00;;;;;;5094692;28;20380;-73
2022/08/27 08:47:42;;;;;;;4.43;0.50;;;20.90;92.80;;;;;;5090927;28;20391;-73
2022/08/27 08:50:29;;;;;;;2.22;0.45;;;20.90;92.50;;;;;;5093926;28;20533;-73
2022/08/27 08:53:20;;;;;;;4.22;0.43;;;20.90;92.60;;;;;;5092699;28;20357;-73
2022/08/27 08:55:57;;;;;;;2.92;0.40;;;21.10;92.50;;;;;;5094033;28;20052;-73
2022/08/27 08:58:40;;;;;;;2.53;0.40;;;21.20;92.40;;;;;;5091073;28;20028;-73
2022/08/27 09:01:08;;;;;;;2.22;0.30;;;21.30;92.20;;;;;;5089595;28;20484;-74
2022/08/27 09:03:40;;;;;;;2.33;0.30;;;21.40;92.10;;;;;;5089198;28;20123;-74
2022/08/27 09:06:19;;;;;;;3.17;0.35;;;21.50;91.50;;;;;;5093609;28;20503;-74
2022/08/27 09:08:44;;;;;;;3.15;0.30;;;21.60;91.80;;;;;;5074920;28;20056;-74
2022/08/27 09:11:34;;;;;;;3.38;0.50;;;21.80;91.40;;;;;;5075932;28;20522;-75
2022/08/27 09:14:35;;;;;;;2.05;0.50;;;21.90;90.90;;;;;;5086731;28;20066;-74
2022/08/27 09:17:02;;;;;;;2.15;0.47;;;22.00;90.70;;;;;;5058656;28;20057;-74
2022/08/27 09:19:28;;;;;;;2.00;0.40;;;22.00;90.30;;;;;;5092965;28;20117;-74
2022/08/27 09:22:13;;;;;;;4.32;0.35;;;22.00;90.10;;;;;;5091906;28;20476;-75
2022/08/27 09:25:06;;;;;;;1.50;0.30;;;21.90;90.00;;;;;;5090186;28;20474;-75
2022/08/27 09:27:35;;;;;;;2.28;0.40;;;21.80;90.00;;;;;;5086181;28;20059;-75
2022/08/27 09:30:12;;;;;;;3.92;0.30;;;21.90;90.00;;;;;;5090665;28;20039;-74
2022/08/27 09:32:39;;;;;;;2.35;0.40;;;22.10;89.30;;;;;;5089721;28;20074;-74
2022/08/27 09:35:10;;;;;;;2.28;0.98;;;22.30;88.60;;;;;;5079057;28;20043;-75
2022/08/27 09:37:46;;;;;;;2.25;0.28;;;22.50;87.60;;;;;;5088178;28;20020;-74
2022/08/27 09:40:12;;;;;;;2.17;0.30;;;22.40;86.30;;;;;;5093184;28;20032;-75
2022/08/27 09:42:51;;;;;;;6.57;0.50;;;22.30;86.40;;;;;;5087433;28;20043;-75
2022/08/27 09:45:28;;;;;;;2.67;0.30;;;22.40;86.60;;;;;;5085265;28;20028;-75
2022/08/27 09:48:08;;;;;;;3.80;0.60;;;22.60;86.30;;;;;;5092823;28;20032;-75
2022/08/27 09:50:52;;;;;;;1.55;0.30;;;22.70;86.30;;;;;;5080848;28;20134;-75
2022/08/27 09:53:28;;;;;;;2.85;0.40;;;22.80;85.60;;;;;;5085776;28;20085;-75
2022/08/27 09:56:03;;;;;;;2.05;0.40;;;22.70;85.40;;;;;;5092635;28;20020;-75
2022/08/27 09:58:43;;;;;;;2.00;0.32;;;22.60;85.20;;;;;;5090499;28;20035;-75
2022/08/27 10:01:47;;;;;;;3.13;0.40;;;22.70;85.10;;;;;;5092368;28;20028;-74
2022/08/27 10:04:16;;;;;;;2.20;0.22;;;22.90;84.50;;;;;;5079396;28;20028;-75
2022/08/27 10:06:47;;;;;;;3.35;0.38;;;22.80;84.00;;;;;;5087730;28;20460;-75
2022/08/27 10:09:30;;;;;;;1.38;0.30;;;22.70;83.80;;;;;;5093391;28;20044;-75
2022/08/27 10:12:05;;;;;;;3.50;0.35;;;22.60;84.20;;;;;;5079688;28;20078;-75
2022/08/27 10:14:37;;;;;;;2.53;0.30;;;22.70;83.60;;;;;;5090528;28;20024;-75
2022/08/27 10:17:22;;;;;;;2.50;0.40;;;22.60;83.20;;;;;;5092188;28;20496;-74
2022/08/27 10:19:56;;;;;;;8.07;0.50;;;22.50;83.20;;;;;;5092916;28;20039;-75
2022/08/27 10:22:22;;;;;;;1.60;0.40;;;22.50;83.30;;;;;;5088950;28;20055;-75
2022/08/27 10:25:04;;;;;;;2.40;0.30;;;22.40;83.20;;;;;;5084480;28;20032;-74
2022/08/27 10:27:52;;;;;;;1.88;0.20;;;22.40;83.20;;;;;;5084363;28;20024;-74
2022/08/27 10:30:24;;;;;;;1.08;0.30;;;22.30;83.30;;;;;;5072696;28;20033;-74
2022/08/27 10:33:18;;;;;;;2.35;0.30;;;22.50;83.30;;;;;;5086439;28;20024;-74
2022/08/27 10:35:50;;;;;;;1.63;0.30;;;22.80;82.80;;;;;;5084828;28;20031;-74
2022/08/27 10:38:28;;;;;;;;;;;23.10;81.90;;;;;;5090976;28;20075;-74
2022/08/27 10:41:11;;;;;;;3.20;0.38;;;23.20;81.40;;;;;;5081660;28;20375;-74
2022/08/27 10:44:17;;;;;;;1.00;0.28;;;23.30;81.30;;;;;;5090673;28;20120;-75
2022/08/27 10:47:02;;;;;;;1.67;0.30;;;23.50;81.30;;;;;;5084732;28;20028;-74
2022/08/27 10:49:59;;;;;;;1.27;0.30;;;23.70;80.50;;;;;;5076759;28;20037;-74
2022/08/27 10:52:36;;;;;;;2.60;0.40;;;23.80;79.90;;;;;;5079110;28;20028;-75
2022/08/27 10:55:17;;;;;;;3.63;0.38;;;23.90;79.80;;;;;;5085549;28;20032;-75
2022/08/27 10:57:51;;;;;;;2.22;0.30;;;23.90;79.30;;;;;;5088496;28;20017;-74
2022/08/27 11:00:22;;;;;;;3.33;0.40;;;23.80;78.50;;;;;;5074483;28;20020;-75
2022/08/27 11:03:08;;;;;;;1.90;0.40;;;23.70;78.10;;;;;;5072725;28;20024;-74
2022/08/27 11:05:45;;;;;;;2.10;0.30;;;23.80;78.40;;;;;;5081702;28;20024;-74
2022/08/27 11:08:17;;;;;;;4.70;0.30;;;23.90;78.40;;;;;;5073943;28;20040;-74
2022/08/27 11:10:53;;;;;;;0.93;0.20;;;24.10;77.90;;;;;;5086110;28;20115;-74
2022/08/27 11:13:30;;;;;;;1.92;0.40;;;24.10;77.00;;;;;;5087355;28;20032;-74
2022/08/27 11:15:56;;;;;;;1.77;0.30;;;24.10;76.40;;;;;;5076930;28;20017;-75
2022/08/27 11:18:37;;;;;;;12.73;1.58;;;24.00;76.80;;;;;;5086609;28;20484;-74
2022/08/27 11:21:37;;;;;;;1.05;0.30;;;24.00;76.70;;;;;;5088197;28;20042;-74
2022/08/27 11:24:18;;;;;;;3.00;0.30;;;24.10;76.00;;;;;;5092669;28;20077;-75
2022/08/27 11:26:45;;;;;;;1.92;0.30;;;24.10;75.60;;;;;;5089589;28;20480;-75
2022/08/27 11:29:41;;;;;;;1.67;0.30;;;24.10;76.00;;;;;;5083121;28;20045;-75
2022/08/27 11:32:42;;;;;;;1.38;0.20;;;24.20;75.50;;;;;;5086158;28;20012;-75
2022/08/27 11:35:27;;;;;;;1.38;0.30;;;24.30;75.00;;;;;;5085776;28;20054;-75
2022/08/27 11:38:26;;;;;;;2.88;0.30;;;24.20;74.70;;;;;;5081691;28;20026;-74
2022/08/27 11:41:25;;;;;;;2.13;0.30;;;24.20;74.70;;;;;;5090556;28;20035;-74
2022/08/27 11:43:52;;;;;;;1.52;0.30;;;24.20;75.50;;;;;;5090589;28;20024;-75
2022/08/27 11:46:26;;;;;;;4.15;0.30;;;24.30;75.20;;;;;;5082190;28;20021;-75
2022/08/27 11:49:02;;;;;;;2.63;0.40;;;24.50;74.50;;;;;;5078950;28;20047;-74
2022/08/27 11:51:33;;;;;;;3.05;0.30;;;24.40;73.90;;;;;;5092471;28;20434;-74
2022/08/27 11:54:01;;;;;;;1.05;0.30;;;24.30;73.90;;;;;;5095064;28;20035;-74
2022/08/27 11:56:32;;;;;;;1.92;0.30;;;24.20;73.80;;;;;;5082364;28;20033;-75
2022/08/27 11:59:31;;;;;;;1.98;0.40;;;24.20;74.70;;;;;;5083097;28;20107;-74
2022/08/27 12:02:17;;;;;;;3.17;0.68;;;24.30;75.10;;;;;;5092280;28;20056;-74
2022/08/27 12:04:43;;;;;;;4.32;0.50;;;24.30;74.70;;;;;;5090473;28;20461;-74
2022/08/27 12:07:20;;;;;;;3.97;0.30;;;24.30;74.40;;;;;;5085368;28;20052;-74
2022/08/27 12:09:55;;;;;;;1.80;0.20;;;24.30;74.40;;;;;;5087894;28;20097;-74
2022/08/27 12:12:53;;;;;;;1.17;0.30;;;24.30;75.00;;;;;;5086611;28;20059;-74
2022/08/27 12:15:28;;;;;;;1.40;0.40;;;24.40;74.60;;;;;;5085414;28;20020;-74
2022/08/27 12:18:26;;;;;;;4.30;0.50;;;24.50;74.10;;;;;;5089140;28;20082;-74
2022/08/27 12:21:20;;;;;;;3.88;0.32;;;24.50;74.60;;;;;;5089935;28;20024;-74
2022/08/27 12:24:00;;;;;;;4.00;0.38;;;24.50;74.60;;;;;;5039167;28;20115;-74
2022/08/27 12:26:41;;;;;;;1.98;0.30;;;24.60;74.10;;;;;;5091852;28;20068;-74
2022/08/27 12:29:24;;;;;;;1.20;0.30;;;24.50;73.90;;;;;;5091992;28;20491;-73
2022/08/27 12:31:55;;;;;;;2.75;0.40;;;24.50;73.90;;;;;;5082007;28;20504;-75
2022/08/27 12:34:25;;;;;;;5.65;0.30;;;24.50;74.20;;;;;;5079543;28;20035;-75
2022/08/27 12:36:52;;;;;;;1.98;0.22;;;24.60;73.80;;;;;;5093233;28;20032;-76
2022/08/27 12:39:23;;;;;;;2.15;0.40;;;24.60;73.80;;;;;;5085538;28;20472;-75
2022/08/27 12:41:50;;;;;;;3.28;0.30;;;24.70;73.80;;;;;;5092043;28;20028;-76
2022/08/27 12:44:25;;;;;;;1.95;0.40;;;24.80;73.60;;;;;;5090889;28;20114;-76
2022/08/27 12:47:02;;;;;;;2.45;0.52;;;24.80;73.50;;;;;;5093853;28;20023;-76
2022/08/27 12:49:34;;;;;;;1.33;0.22;;;24.80;73.00;;;;;;5091873;28;20032;-76
2022/08/27 12:52:11;;;;;;;2.50;0.73;;;24.90;73.20;;;;;;5084536;28;20049;-75
2022/08/27 12:54:40;;;;;;;2.17;0.40;;;24.90;73.10;;;;;;5094856;28;20031;-75
2022/08/27 12:57:29;;;;;;;2.22;0.60;;;24.90;72.80;;;;;;5090609;28;20541;-76
2022/08/27 13:00:02;;;;;;;7.38;1.15;;;24.80;73.40;;;;;;5094491;28;20056;-76
2022/08/27 13:02:43;;;;;;;2.65;0.40;;;24.70;73.90;;;;;;5089410;28;20100;-75
2022/08/27 13:05:10;;;;;;;1.65;0.40;;;24.70;73.50;;;;;;5081337;28;20040;-76
2022/08/27 13:07:45;;;;;;;1.30;0.30;;;24.70;73.40;;;;;;5090488;28;20587;-76
2022/08/27 13:10:28;;;;;;;5.25;0.88;;;24.50;72.70;;;;;;5090592;28;20380;-75
2022/08/27 13:13:10;;;;;;;2.10;0.40;;;24.40;72.80;;;;;;5090100;28;20032;-76
2022/08/27 13:15:40;;;;;;;4.53;0.30;;;24.40;72.50;;;;;;5085919;28;20020;-75